KOTM/OTM METAR and TAF weather

Enter ICAO airport designator
Station Type Date Time Source
KOTM METAR 2019/04/19 07:53 UTC NOAA

KOTM 190753Z AUTO 34009KT 10SM CLR 06/02 A2991 RMK AO2 SLP129 T00560022


Station Type Date Time Source
KOTM Decoded METAR 2019/04/19 07:53 UTC NOAA

OTTUMWA INDUSTRIAL AIRPORT, IA, United States (KOTM) 41-06N 092-27W 256M
Apr 19, 2019 - 03:53 AM EDT / 2019.04.19 0753 UTC
Wind: from the NNW (340 degrees) at 10 MPH (9 KT):0
Visibility: 10 mile(s):0
Sky conditions: clear
Temperature: 42.1 F (5.6 C)
Dew Point: 36.0 F (2.2 C)
Relative Humidity: 78%
Pressure (altimeter): 29.91 in. Hg (1012 hPa)
ob: KOTM 190753Z AUTO 34009KT 10SM CLR 06/02 A2991 RMK AO2 SLP129 T00560022
cycle: 8

Station Type Date Time Source
KOTM TAF 2019/04/19 06:22 UTC NOAA

TAF KOTM 190520Z 1906/2006 35011KT P6SM SCT050
FM191600 36018G26KT P6SM FEW050 FEW250
FM192000 36016KT P6SM SKC
FM200100 34008KT P6SM SKC

Example: see airport list